メインページ
METAR-TAF:

METAR-TAF

空港 :

スレイマニヤ, イラク

緯度: 35-33-39N, 経度: 45-18-52E, 海抜: 760m

現時点の気象観測

当レポートは24分前の18:00(UTC)に作成
北東の風 13kt
気温 11°C
湿度 25%
気圧 1025 hPa
視程10km以上
1,500メートル以下は雲なし、積乱雲なし

METAR: ORSU 171800Z 05013KT CAVOK 11/M08 Q1025

時間: 21:24 (18:24 UTC)

予報

当レポートは1時間24分前の17:00(UTC)に作成
予報は17日の 18時(UTC)から 18日の 18時(UTC)まで有効
東/北東の風 17kt
視程10km以上
1,500メートル以下は雲なし、積乱雲なし

TAF: ORSU 171700Z 1718/1818 07017KT CAVOK

4,000以上の空港の気象観測と天気予報(METAR報とTAF報)

利用可能な観測所は地図上に黄色い丸と赤い丸で示す。

丸の上にカーソルを重ねると観測所名を参照できる。

次にクリックすると気象観測と天気予報を参照できる。

マップの切り替え:黒色「×」印の緑ボタンをクリックして拡大、「-」印の緑ボタンをクリックして縮小、緑色の三角印をクリックして隣りの地図に切り替え


METAR-TAF: